sensor_id;sensor_type;location;lat;lon;timestamp;P1;durP1;ratioP1;P2;durP2;ratioP2
51758;SDS011;66684;47.568;18.734;2023-03-24T00:01:16;24.42;;;12.50;;
51758;SDS011;66684;47.568;18.734;2023-03-24T00:03:42;24.20;;;14.73;;
51758;SDS011;66684;47.568;18.734;2023-03-24T00:06:13;20.33;;;13.18;;
51758;SDS011;66684;47.568;18.734;2023-03-24T00:08:39;20.45;;;12.75;;
51758;SDS011;66684;47.568;18.734;2023-03-24T00:11:09;18.80;;;13.15;;
51758;SDS011;66684;47.568;18.734;2023-03-24T00:13:37;17.33;;;11.88;;
51758;SDS011;66684;47.568;18.734;2023-03-24T00:16:13;19.87;;;12.63;;
51758;SDS011;66684;47.568;18.734;2023-03-24T00:18:41;20.15;;;12.43;;
51758;SDS011;66684;47.568;18.734;2023-03-24T00:21:07;20.58;;;11.80;;
51758;SDS011;66684;47.568;18.734;2023-03-24T00:23:35;18.45;;;11.90;;
51758;SDS011;66684;47.568;18.734;2023-03-24T00:26:02;18.20;;;11.77;;
51758;SDS011;66684;47.568;18.734;2023-03-24T00:28:31;17.65;;;12.18;;
51758;SDS011;66684;47.568;18.734;2023-03-24T00:30:59;21.12;;;11.60;;
51758;SDS011;66684;47.568;18.734;2023-03-24T00:33:27;18.20;;;11.60;;
51758;SDS011;66684;47.568;18.734;2023-03-24T00:35:57;19.90;;;11.93;;
51758;SDS011;66684;47.568;18.734;2023-03-24T00:38:24;18.02;;;11.73;;
51758;SDS011;66684;47.568;18.734;2023-03-24T00:40:51;20.35;;;12.20;;
51758;SDS011;66684;47.568;18.734;2023-03-24T00:43:17;17.87;;;12.77;;
51758;SDS011;66684;47.568;18.734;2023-03-24T00:45:44;17.52;;;11.73;;
51758;SDS011;66684;47.568;18.734;2023-03-24T00:48:14;19.23;;;11.35;;
51758;SDS011;66684;47.568;18.734;2023-03-24T00:50:49;16.87;;;11.35;;
51758;SDS011;66684;47.568;18.734;2023-03-24T00:53:16;17.90;;;11.00;;
51758;SDS011;66684;47.568;18.734;2023-03-24T00:55:44;17.75;;;11.02;;
51758;SDS011;66684;47.568;18.734;2023-03-24T00:58:12;18.48;;;12.00;;
51758;SDS011;66684;47.568;18.734;2023-03-24T01:00:49;18.15;;;10.88;;
51758;SDS011;66684;47.568;18.734;2023-03-24T01:03:19;18.50;;;11.93;;
51758;SDS011;66684;47.568;18.734;2023-03-24T01:05:47;18.60;;;11.52;;
51758;SDS011;66684;47.568;18.734;2023-03-24T01:08:14;18.75;;;11.02;;
51758;SDS011;66684;47.568;18.734;2023-03-24T01:10:45;18.48;;;11.30;;
51758;SDS011;66684;47.568;18.734;2023-03-24T01:13:24;18.15;;;11.68;;
51758;SDS011;66684;47.568;18.734;2023-03-24T01:15:53;18.80;;;11.40;;
51758;SDS011;66684;47.568;18.734;2023-03-24T01:18:19;15.10;;;10.48;;
51758;SDS011;66684;47.568;18.734;2023-03-24T01:20:46;17.00;;;11.15;;
51758;SDS011;66684;47.568;18.734;2023-03-24T01:23:18;17.42;;;11.07;;
51758;SDS011;66684;47.568;18.734;2023-03-24T01:25:46;17.93;;;11.90;;
51758;SDS011;66684;47.568;18.734;2023-03-24T01:28:13;19.20;;;11.48;;
51758;SDS011;66684;47.568;18.734;2023-03-24T01:30:41;20.20;;;11.05;;
51758;SDS011;66684;47.568;18.734;2023-03-24T01:33:08;21.80;;;10.65;;
51758;SDS011;66684;47.568;18.734;2023-03-24T01:35:34;17.75;;;10.82;;
51758;SDS011;66684;47.568;18.734;2023-03-24T01:38:03;20.02;;;11.63;;
51758;SDS011;66684;47.568;18.734;2023-03-24T01:40:32;16.08;;;10.73;;
51758;SDS011;66684;47.568;18.734;2023-03-24T01:43:00;18.33;;;10.93;;
51758;SDS011;66684;47.568;18.734;2023-03-24T01:45:39;16.95;;;10.82;;
51758;SDS011;66684;47.568;18.734;2023-03-24T01:48:46;13.90;;;10.32;;
51758;SDS011;66684;47.568;18.734;2023-03-24T01:51:35;15.27;;;10.57;;
51758;SDS011;66684;47.568;18.734;2023-03-24T01:54:03;17.23;;;10.57;;
51758;SDS011;66684;47.568;18.734;2023-03-24T01:56:32;15.85;;;10.25;;
51758;SDS011;66684;47.568;18.734;2023-03-24T01:59:03;19.87;;;10.65;;
51758;SDS011;66684;47.568;18.734;2023-03-24T02:04:01;19.35;;;9.70;;
51758;SDS011;66684;47.568;18.734;2023-03-24T02:06:34;17.73;;;10.30;;
51758;SDS011;66684;47.568;18.734;2023-03-24T02:09:06;18.58;;;9.82;;
51758;SDS011;66684;47.568;18.734;2023-03-24T02:11:33;14.75;;;9.77;;
51758;SDS011;66684;47.568;18.734;2023-03-24T02:14:01;15.98;;;9.77;;
51758;SDS011;66684;47.568;18.734;2023-03-24T02:35:55;17.15;;;9.57;;
51758;SDS011;66684;47.568;18.734;2023-03-24T02:41:33;20.00;;;10.20;;
51758;SDS011;66684;47.568;18.734;2023-03-24T02:44:29;14.40;;;10.48;;
51758;SDS011;66684;47.568;18.734;2023-03-24T02:47:04;13.93;;;10.07;;
51758;SDS011;66684;47.568;18.734;2023-03-24T02:49:54;16.02;;;10.02;;
51758;SDS011;66684;47.568;18.734;2023-03-24T02:58:22;16.05;;;9.40;;
51758;SDS011;66684;47.568;18.734;2023-03-24T03:00:30;14.75;;;10.45;;
51758;SDS011;66684;47.568;18.734;2023-03-24T03:02:58;17.15;;;10.30;;
51758;SDS011;66684;47.568;18.734;2023-03-24T03:07:59;16.12;;;10.85;;
51758;SDS011;66684;47.568;18.734;2023-03-24T03:10:35;19.80;;;10.63;;
51758;SDS011;66684;47.568;18.734;2023-03-24T03:13:14;17.00;;;11.40;;
51758;SDS011;66684;47.568;18.734;2023-03-24T03:15:45;16.15;;;10.68;;
51758;SDS011;66684;47.568;18.734;2023-03-24T03:18:18;19.12;;;11.23;;
51758;SDS011;66684;47.568;18.734;2023-03-24T03:21:05;19.02;;;10.77;;
51758;SDS011;66684;47.568;18.734;2023-03-24T03:23:38;17.48;;;10.60;;
51758;SDS011;66684;47.568;18.734;2023-03-24T03:26:14;15.77;;;10.32;;
51758;SDS011;66684;47.568;18.734;2023-03-24T03:28:45;15.95;;;11.12;;
51758;SDS011;66684;47.568;18.734;2023-03-24T03:31:18;15.65;;;10.80;;
51758;SDS011;66684;47.568;18.734;2023-03-24T03:41:46;16.52;;;10.80;;
51758;SDS011;66684;47.568;18.734;2023-03-24T03:44:12;15.63;;;10.45;;
51758;SDS011;66684;47.568;18.734;2023-03-24T03:46:38;16.75;;;11.12;;
51758;SDS011;66684;47.568;18.734;2023-03-24T03:49:05;14.93;;;10.88;;
51758;SDS011;66684;47.568;18.734;2023-03-24T03:51:32;16.20;;;10.82;;
51758;SDS011;66684;47.568;18.734;2023-03-24T03:54:00;16.45;;;11.05;;
51758;SDS011;66684;47.568;18.734;2023-03-24T03:56:31;18.00;;;10.35;;
51758;SDS011;66684;47.568;18.734;2023-03-24T03:58:59;15.20;;;10.70;;
51758;SDS011;66684;47.568;18.734;2023-03-24T04:01:26;14.63;;;10.45;;
51758;SDS011;66684;47.568;18.734;2023-03-24T04:06:40;16.00;;;10.98;;
51758;SDS011;66684;47.568;18.734;2023-03-24T04:12:23;13.50;;;10.20;;
51758;SDS011;66684;47.568;18.734;2023-03-24T04:17:49;20.52;;;11.90;;
51758;SDS011;66684;47.568;18.734;2023-03-24T04:23:04;19.33;;;11.68;;
51758;SDS011;66684;47.568;18.734;2023-03-24T04:25:46;15.05;;;11.30;;
51758;SDS011;66684;47.568;18.734;2023-03-24T04:28:22;18.33;;;11.77;;
51758;SDS011;66684;47.568;18.734;2023-03-24T04:31:02;16.33;;;11.90;;
51758;SDS011;66684;47.568;18.734;2023-03-24T04:33:40;18.48;;;11.68;;
51758;SDS011;66684;47.568;18.734;2023-03-24T04:36:35;17.02;;;11.85;;
51758;SDS011;66684;47.568;18.734;2023-03-24T04:39:12;16.20;;;12.32;;
51758;SDS011;66684;47.568;18.734;2023-03-24T04:41:42;17.87;;;12.35;;
51758;SDS011;66684;47.568;18.734;2023-03-24T04:44:09;17.30;;;11.85;;
51758;SDS011;66684;47.568;18.734;2023-03-24T04:46:37;20.45;;;13.23;;
51758;SDS011;66684;47.568;18.734;2023-03-24T04:49:03;20.83;;;12.80;;
51758;SDS011;66684;47.568;18.734;2023-03-24T04:51:29;15.60;;;12.55;;
51758;SDS011;66684;47.568;18.734;2023-03-24T04:53:57;23.00;;;13.80;;
51758;SDS011;66684;47.568;18.734;2023-03-24T04:56:27;17.62;;;12.50;;
51758;SDS011;66684;47.568;18.734;2023-03-24T04:59:12;20.73;;;13.62;;
51758;SDS011;66684;47.568;18.734;2023-03-24T05:01:39;18.60;;;12.82;;
51758;SDS011;66684;47.568;18.734;2023-03-24T05:04:06;18.25;;;13.20;;
51758;SDS011;66684;47.568;18.734;2023-03-24T05:06:32;27.48;;;17.85;;
51758;SDS011;66684;47.568;18.734;2023-03-24T05:08:58;33.35;;;23.12;;
51758;SDS011;66684;47.568;18.734;2023-03-24T05:11:25;30.95;;;22.35;;
51758;SDS011;66684;47.568;18.734;2023-03-24T05:13:52;31.62;;;20.55;;
51758;SDS011;66684;47.568;18.734;2023-03-24T05:16:18;33.30;;;24.37;;
51758;SDS011;66684;47.568;18.734;2023-03-24T05:18:45;25.52;;;17.48;;
51758;SDS011;66684;47.568;18.734;2023-03-24T05:21:11;22.02;;;16.35;;
51758;SDS011;66684;47.568;18.734;2023-03-24T05:23:37;23.58;;;15.70;;
51758;SDS011;66684;47.568;18.734;2023-03-24T05:26:03;29.05;;;16.30;;
51758;SDS011;66684;47.568;18.734;2023-03-24T05:28:30;27.13;;;15.68;;
51758;SDS011;66684;47.568;18.734;2023-03-24T05:30:56;23.52;;;15.93;;
51758;SDS011;66684;47.568;18.734;2023-03-24T05:33:22;24.50;;;18.42;;
51758;SDS011;66684;47.568;18.734;2023-03-24T05:35:47;25.50;;;19.58;;
51758;SDS011;66684;47.568;18.734;2023-03-24T05:38:13;34.85;;;26.17;;
51758;SDS011;66684;47.568;18.734;2023-03-24T05:40:40;23.98;;;18.05;;
51758;SDS011;66684;47.568;18.734;2023-03-24T05:43:06;31.20;;;23.98;;
51758;SDS011;66684;47.568;18.734;2023-03-24T05:45:33;30.20;;;20.48;;
51758;SDS011;66684;47.568;18.734;2023-03-24T05:47:59;30.52;;;19.05;;
51758;SDS011;66684;47.568;18.734;2023-03-24T05:50:25;27.70;;;17.52;;
51758;SDS011;66684;47.568;18.734;2023-03-24T05:52:51;29.45;;;16.52;;
51758;SDS011;66684;47.568;18.734;2023-03-24T05:55:17;22.95;;;15.77;;
51758;SDS011;66684;47.568;18.734;2023-03-24T05:57:44;22.23;;;15.77;;
51758;SDS011;66684;47.568;18.734;2023-03-24T06:00:10;34.13;;;16.50;;
51758;SDS011;66684;47.568;18.734;2023-03-24T06:02:44;29.45;;;16.85;;
51758;SDS011;66684;47.568;18.734;2023-03-24T06:05:11;35.63;;;20.48;;
51758;SDS011;66684;47.568;18.734;2023-03-24T06:07:37;29.02;;;17.60;;
51758;SDS011;66684;47.568;18.734;2023-03-24T06:10:07;27.73;;;16.45;;
51758;SDS011;66684;47.568;18.734;2023-03-24T06:12:36;30.42;;;17.95;;
51758;SDS011;66684;47.568;18.734;2023-03-24T06:15:02;42.03;;;23.15;;
51758;SDS011;66684;47.568;18.734;2023-03-24T06:17:29;36.97;;;19.67;;
51758;SDS011;66684;47.568;18.734;2023-03-24T06:19:56;28.17;;;17.67;;
51758;SDS011;66684;47.568;18.734;2023-03-24T06:22:38;29.60;;;17.67;;
51758;SDS011;66684;47.568;18.734;2023-03-24T06:25:04;41.45;;;22.77;;
51758;SDS011;66684;47.568;18.734;2023-03-24T06:27:31;47.85;;;27.58;;
51758;SDS011;66684;47.568;18.734;2023-03-24T06:29:57;43.55;;;25.95;;
51758;SDS011;66684;47.568;18.734;2023-03-24T06:32:24;25.80;;;17.48;;
51758;SDS011;66684;47.568;18.734;2023-03-24T06:34:51;22.37;;;16.25;;
51758;SDS011;66684;47.568;18.734;2023-03-24T06:37:17;22.45;;;16.35;;
51758;SDS011;66684;47.568;18.734;2023-03-24T06:39:45;24.83;;;14.73;;
51758;SDS011;66684;47.568;18.734;2023-03-24T06:42:11;24.85;;;14.52;;
51758;SDS011;66684;47.568;18.734;2023-03-24T06:44:37;20.20;;;13.52;;
51758;SDS011;66684;47.568;18.734;2023-03-24T06:47:03;19.45;;;13.05;;
51758;SDS011;66684;47.568;18.734;2023-03-24T06:49:30;18.92;;;14.02;;
51758;SDS011;66684;47.568;18.734;2023-03-24T06:51:56;25.48;;;12.85;;
51758;SDS011;66684;47.568;18.734;2023-03-24T06:54:21;17.02;;;13.52;;
51758;SDS011;66684;47.568;18.734;2023-03-24T06:56:47;19.20;;;12.23;;
51758;SDS011;66684;47.568;18.734;2023-03-24T06:59:13;20.20;;;12.95;;
51758;SDS011;66684;47.568;18.734;2023-03-24T07:01:42;15.93;;;11.57;;
51758;SDS011;66684;47.568;18.734;2023-03-24T07:04:08;17.73;;;11.25;;
51758;SDS011;66684;47.568;18.734;2023-03-24T07:06:34;15.63;;;11.65;;
51758;SDS011;66684;47.568;18.734;2023-03-24T07:09:00;15.82;;;11.02;;
51758;SDS011;66684;47.568;18.734;2023-03-24T07:11:26;16.65;;;10.38;;
51758;SDS011;66684;47.568;18.734;2023-03-24T07:13:52;18.10;;;11.27;;
51758;SDS011;66684;47.568;18.734;2023-03-24T07:16:18;15.88;;;10.45;;
51758;SDS011;66684;47.568;18.734;2023-03-24T07:18:44;15.05;;;9.73;;
51758;SDS011;66684;47.568;18.734;2023-03-24T07:21:10;15.07;;;9.80;;
51758;SDS011;66684;47.568;18.734;2023-03-24T07:23:36;14.05;;;9.60;;
51758;SDS011;66684;47.568;18.734;2023-03-24T07:26:02;13.32;;;9.30;;
51758;SDS011;66684;47.568;18.734;2023-03-24T07:28:28;16.77;;;10.38;;
51758;SDS011;66684;47.568;18.734;2023-03-24T07:30:54;12.80;;;8.32;;
51758;SDS011;66684;47.568;18.734;2023-03-24T07:33:20;13.60;;;8.05;;
51758;SDS011;66684;47.568;18.734;2023-03-24T07:35:46;13.00;;;9.15;;
51758;SDS011;66684;47.568;18.734;2023-03-24T07:38:12;15.10;;;8.98;;
51758;SDS011;66684;47.568;18.734;2023-03-24T07:40:38;12.07;;;8.40;;
51758;SDS011;66684;47.568;18.734;2023-03-24T07:43:04;10.45;;;7.28;;
51758;SDS011;66684;47.568;18.734;2023-03-24T07:45:30;10.43;;;7.93;;
51758;SDS011;66684;47.568;18.734;2023-03-24T07:47:57;12.60;;;7.65;;
51758;SDS011;66684;47.568;18.734;2023-03-24T07:50:29;13.25;;;7.62;;
51758;SDS011;66684;47.568;18.734;2023-03-24T07:52:56;15.80;;;7.75;;
51758;SDS011;66684;47.568;18.734;2023-03-24T07:55:22;11.82;;;8.23;;
51758;SDS011;66684;47.568;18.734;2023-03-24T07:57:49;12.30;;;7.87;;
51758;SDS011;66684;47.568;18.734;2023-03-24T08:00:15;10.50;;;7.62;;
51758;SDS011;66684;47.568;18.734;2023-03-24T08:02:43;12.70;;;8.00;;
51758;SDS011;66684;47.568;18.734;2023-03-24T08:05:10;10.00;;;7.00;;
51758;SDS011;66684;47.568;18.734;2023-03-24T08:07:42;10.85;;;7.57;;
51758;SDS011;66684;47.568;18.734;2023-03-24T08:10:12;10.45;;;7.37;;
51758;SDS011;66684;47.568;18.734;2023-03-24T08:12:39;9.52;;;6.55;;
51758;SDS011;66684;47.568;18.734;2023-03-24T08:15:06;9.52;;;6.20;;
51758;SDS011;66684;47.568;18.734;2023-03-24T08:17:34;9.07;;;6.35;;
51758;SDS011;66684;47.568;18.734;2023-03-24T08:20:01;10.25;;;7.03;;
51758;SDS011;66684;47.568;18.734;2023-03-24T08:22:32;10.20;;;7.50;;
51758;SDS011;66684;47.568;18.734;2023-03-24T08:24:58;10.68;;;7.40;;
51758;SDS011;66684;47.568;18.734;2023-03-24T08:27:24;11.15;;;7.85;;
51758;SDS011;66684;47.568;18.734;2023-03-24T08:29:50;10.40;;;7.50;;
51758;SDS011;66684;47.568;18.734;2023-03-24T08:32:16;16.58;;;7.95;;
51758;SDS011;66684;47.568;18.734;2023-03-24T08:34:42;15.75;;;7.95;;
51758;SDS011;66684;47.568;18.734;2023-03-24T08:37:08;16.02;;;8.25;;
51758;SDS011;66684;47.568;18.734;2023-03-24T08:39:34;12.35;;;8.75;;
51758;SDS011;66684;47.568;18.734;2023-03-24T08:42:00;12.85;;;7.78;;
51758;SDS011;66684;47.568;18.734;2023-03-24T08:44:27;15.15;;;8.60;;
51758;SDS011;66684;47.568;18.734;2023-03-24T08:46:53;10.82;;;7.75;;
51758;SDS011;66684;47.568;18.734;2023-03-24T08:49:19;15.63;;;7.72;;
51758;SDS011;66684;47.568;18.734;2023-03-24T08:51:45;12.02;;;8.32;;
51758;SDS011;66684;47.568;18.734;2023-03-24T08:54:11;13.65;;;8.07;;
51758;SDS011;66684;47.568;18.734;2023-03-24T08:56:38;13.85;;;7.97;;
51758;SDS011;66684;47.568;18.734;2023-03-24T08:59:05;14.93;;;8.70;;
51758;SDS011;66684;47.568;18.734;2023-03-24T09:01:31;15.90;;;9.15;;
51758;SDS011;66684;47.568;18.734;2023-03-24T09:04:00;15.88;;;9.35;;
51758;SDS011;66684;47.568;18.734;2023-03-24T09:06:26;12.63;;;8.10;;
51758;SDS011;66684;47.568;18.734;2023-03-24T09:08:53;17.27;;;9.15;;
51758;SDS011;66684;47.568;18.734;2023-03-24T09:11:19;15.35;;;9.45;;
51758;SDS011;66684;47.568;18.734;2023-03-24T09:13:46;16.08;;;9.65;;
51758;SDS011;66684;47.568;18.734;2023-03-24T09:16:13;15.77;;;8.40;;
51758;SDS011;66684;47.568;18.734;2023-03-24T09:18:40;16.15;;;10.00;;
51758;SDS011;66684;47.568;18.734;2023-03-24T09:21:06;17.27;;;10.32;;
51758;SDS011;66684;47.568;18.734;2023-03-24T09:23:33;16.20;;;9.98;;
51758;SDS011;66684;47.568;18.734;2023-03-24T09:26:00;14.50;;;9.80;;
51758;SDS011;66684;47.568;18.734;2023-03-24T09:28:26;19.35;;;10.18;;
51758;SDS011;66684;47.568;18.734;2023-03-24T09:30:57;21.17;;;10.57;;
51758;SDS011;66684;47.568;18.734;2023-03-24T09:33:25;19.07;;;10.83;;
51758;SDS011;66684;47.568;18.734;2023-03-24T09:35:57;19.20;;;9.30;;
51758;SDS011;66684;47.568;18.734;2023-03-24T09:38:25;20.17;;;9.07;;
51758;SDS011;66684;47.568;18.734;2023-03-24T09:40:55;17.42;;;9.43;;
51758;SDS011;66684;47.568;18.734;2023-03-24T09:43:29;13.00;;;7.85;;
51758;SDS011;66684;47.568;18.734;2023-03-24T09:46:01;13.05;;;6.97;;
51758;SDS011;66684;47.568;18.734;2023-03-24T09:48:41;19.45;;;7.43;;
51758;SDS011;66684;47.568;18.734;2023-03-24T09:51:15;9.68;;;7.18;;
51758;SDS011;66684;47.568;18.734;2023-03-24T09:56:20;11.35;;;7.53;;
51758;SDS011;66684;47.568;18.734;2023-03-24T09:58:50;10.32;;;7.60;;
51758;SDS011;66684;47.568;18.734;2023-03-24T10:01:23;12.10;;;7.90;;
51758;SDS011;66684;47.568;18.734;2023-03-24T10:03:50;14.35;;;8.02;;
51758;SDS011;66684;47.568;18.734;2023-03-24T10:06:28;12.30;;;8.05;;
51758;SDS011;66684;47.568;18.734;2023-03-24T10:15:13;13.18;;;8.85;;
51758;SDS011;66684;47.568;18.734;2023-03-24T10:17:51;14.75;;;8.60;;
51758;SDS011;66684;47.568;18.734;2023-03-24T10:20:33;13.52;;;8.80;;
51758;SDS011;66684;47.568;18.734;2023-03-24T10:28:20;15.90;;;8.18;;
51758;SDS011;66684;47.568;18.734;2023-03-24T10:30:47;15.60;;;8.60;;
51758;SDS011;66684;47.568;18.734;2023-03-24T10:33:15;14.45;;;8.68;;
51758;SDS011;66684;47.568;18.734;2023-03-24T10:35:45;12.27;;;8.05;;
51758;SDS011;66684;47.568;18.734;2023-03-24T10:38:21;10.25;;;6.62;;
51758;SDS011;66684;47.568;18.734;2023-03-24T10:40:48;12.25;;;6.35;;
51758;SDS011;66684;47.568;18.734;2023-03-24T10:43:14;13.70;;;6.20;;
51758;SDS011;66684;47.568;18.734;2023-03-24T10:45:46;11.45;;;5.28;;
51758;SDS011;66684;47.568;18.734;2023-03-24T10:51:16;12.65;;;5.93;;
51758;SDS011;66684;47.568;18.734;2023-03-24T10:53:45;10.43;;;4.57;;
51758;SDS011;66684;47.568;18.734;2023-03-24T10:56:16;12.70;;;6.03;;
51758;SDS011;66684;47.568;18.734;2023-03-24T10:58:44;10.82;;;5.35;;
51758;SDS011;66684;47.568;18.734;2023-03-24T11:01:45;9.88;;;5.60;;
51758;SDS011;66684;47.568;18.734;2023-03-24T11:04:04;12.18;;;5.30;;
51758;SDS011;66684;47.568;18.734;2023-03-24T11:06:31;10.70;;;5.12;;
51758;SDS011;66684;47.568;18.734;2023-03-24T11:09:08;12.43;;;4.75;;
51758;SDS011;66684;47.568;18.734;2023-03-24T11:11:40;7.00;;;4.70;;
51758;SDS011;66684;47.568;18.734;2023-03-24T11:14:09;12.65;;;5.50;;
51758;SDS011;66684;47.568;18.734;2023-03-24T11:16:47;14.30;;;5.43;;
51758;SDS011;66684;47.568;18.734;2023-03-24T11:19:17;17.37;;;5.72;;
51758;SDS011;66684;47.568;18.734;2023-03-24T11:21:45;19.98;;;5.25;;
51758;SDS011;66684;47.568;18.734;2023-03-24T11:24:13;15.40;;;5.70;;
51758;SDS011;66684;47.568;18.734;2023-03-24T11:26:45;15.30;;;6.00;;
51758;SDS011;66684;47.568;18.734;2023-03-24T11:29:19;13.13;;;5.25;;
51758;SDS011;66684;47.568;18.734;2023-03-24T11:31:51;12.20;;;5.03;;
51758;SDS011;66684;47.568;18.734;2023-03-24T11:34:23;11.77;;;4.78;;
51758;SDS011;66684;47.568;18.734;2023-03-24T11:37:05;10.52;;;4.30;;
51758;SDS011;66684;47.568;18.734;2023-03-24T11:39:36;16.10;;;4.28;;
51758;SDS011;66684;47.568;18.734;2023-03-24T11:42:15;8.30;;;3.42;;
51758;SDS011;66684;47.568;18.734;2023-03-24T11:44:44;9.00;;;4.03;;
51758;SDS011;66684;47.568;18.734;2023-03-24T11:47:15;12.10;;;3.87;;
51758;SDS011;66684;47.568;18.734;2023-03-24T11:49:51;10.17;;;4.10;;
51758;SDS011;66684;47.568;18.734;2023-03-24T11:52:30;17.33;;;3.78;;
51758;SDS011;66684;47.568;18.734;2023-03-24T11:55:02;10.68;;;3.90;;
51758;SDS011;66684;47.568;18.734;2023-03-24T12:00:20;8.35;;;3.53;;
51758;SDS011;66684;47.568;18.734;2023-03-24T12:08:39;11.12;;;3.05;;
51758;SDS011;66684;47.568;18.734;2023-03-24T12:13:44;6.53;;;3.00;;
51758;SDS011;66684;47.568;18.734;2023-03-24T12:22:02;10.40;;;3.03;;
51758;SDS011;66684;47.568;18.734;2023-03-24T12:32:41;5.22;;;2.22;;
51758;SDS011;66684;47.568;18.734;2023-03-24T12:49:45;6.50;;;2.33;;
51758;SDS011;66684;47.568;18.734;2023-03-24T12:57:43;6.12;;;1.75;;
51758;SDS011;66684;47.568;18.734;2023-03-24T13:00:17;5.53;;;1.65;;
51758;SDS011;66684;47.568;18.734;2023-03-24T13:02:52;5.03;;;1.65;;
51758;SDS011;66684;47.568;18.734;2023-03-24T13:05:44;3.53;;;1.90;;
51758;SDS011;66684;47.568;18.734;2023-03-24T13:08:14;9.45;;;1.90;;
51758;SDS011;66684;47.568;18.734;2023-03-24T13:10:48;4.05;;;1.67;;
51758;SDS011;66684;47.568;18.734;2023-03-24T13:13:22;4.20;;;1.67;;
51758;SDS011;66684;47.568;18.734;2023-03-24T13:16:14;4.62;;;1.60;;
51758;SDS011;66684;47.568;18.734;2023-03-24T13:18:53;3.72;;;1.62;;
51758;SDS011;66684;47.568;18.734;2023-03-24T13:21:21;4.25;;;1.00;;
51758;SDS011;66684;47.568;18.734;2023-03-24T13:23:57;5.30;;;1.52;;
51758;SDS011;66684;47.568;18.734;2023-03-24T13:37:34;5.75;;;1.33;;
51758;SDS011;66684;47.568;18.734;2023-03-24T13:40:21;3.58;;;1.23;;
51758;SDS011;66684;47.568;18.734;2023-03-24T13:45:49;4.82;;;1.52;;
51758;SDS011;66684;47.568;18.734;2023-03-24T13:48:25;4.55;;;1.85;;
51758;SDS011;66684;47.568;18.734;2023-03-24T13:50:55;4.35;;;1.33;;
51758;SDS011;66684;47.568;18.734;2023-03-24T13:53:35;6.70;;;1.55;;
51758;SDS011;66684;47.568;18.734;2023-03-24T13:56:09;3.58;;;1.02;;
51758;SDS011;66684;47.568;18.734;2023-03-24T13:58:47;6.03;;;1.60;;
51758;SDS011;66684;47.568;18.734;2023-03-24T14:06:48;4.40;;;2.00;;
51758;SDS011;66684;47.568;18.734;2023-03-24T14:14:28;4.87;;;1.67;;
51758;SDS011;66684;47.568;18.734;2023-03-24T14:19:36;6.60;;;1.73;;
51758;SDS011;66684;47.568;18.734;2023-03-24T14:27:34;6.53;;;2.10;;
51758;SDS011;66684;47.568;18.734;2023-03-24T14:30:18;14.02;;;2.20;;
51758;SDS011;66684;47.568;18.734;2023-03-24T14:32:47;7.82;;;1.92;;
51758;SDS011;66684;47.568;18.734;2023-03-24T14:35:21;16.95;;;2.25;;
51758;SDS011;66684;47.568;18.734;2023-03-24T14:38:01;8.75;;;2.20;;
51758;SDS011;66684;47.568;18.734;2023-03-24T14:40:33;5.82;;;2.03;;
51758;SDS011;66684;47.568;18.734;2023-03-24T14:43:24;11.10;;;2.33;;
51758;SDS011;66684;47.568;18.734;2023-03-24T14:45:51;7.28;;;2.75;;
51758;SDS011;66684;47.568;18.734;2023-03-24T14:48:26;4.57;;;1.75;;
51758;SDS011;66684;47.568;18.734;2023-03-24T14:50:57;5.57;;;1.92;;
51758;SDS011;66684;47.568;18.734;2023-03-24T14:53:28;9.77;;;2.10;;
51758;SDS011;66684;47.568;18.734;2023-03-24T14:55:54;5.43;;;1.73;;
51758;SDS011;66684;47.568;18.734;2023-03-24T14:58:55;5.80;;;1.98;;
51758;SDS011;66684;47.568;18.734;2023-03-24T15:01:16;6.40;;;1.77;;
51758;SDS011;66684;47.568;18.734;2023-03-24T15:06:24;4.57;;;1.80;;
51758;SDS011;66684;47.568;18.734;2023-03-24T15:08:51;6.12;;;2.10;;
51758;SDS011;66684;47.568;18.734;2023-03-24T15:11:26;5.62;;;2.62;;
51758;SDS011;66684;47.568;18.734;2023-03-24T15:13:54;8.13;;;3.00;;
51758;SDS011;66684;47.568;18.734;2023-03-24T15:16:23;9.70;;;4.40;;
51758;SDS011;66684;47.568;18.734;2023-03-24T15:19:05;13.73;;;4.37;;
51758;SDS011;66684;47.568;18.734;2023-03-24T15:21:35;7.35;;;3.85;;
51758;SDS011;66684;47.568;18.734;2023-03-24T15:24:22;7.78;;;3.40;;
51758;SDS011;66684;47.568;18.734;2023-03-24T15:26:54;3.53;;;2.08;;
51758;SDS011;66684;47.568;18.734;2023-03-24T15:29:55;4.82;;;1.80;;
51758;SDS011;66684;47.568;18.734;2023-03-24T15:34:55;6.00;;;1.20;;
51758;SDS011;66684;47.568;18.734;2023-03-24T15:37:28;4.05;;;1.90;;
51758;SDS011;66684;47.568;18.734;2023-03-24T15:39:58;3.03;;;2.00;;
51758;SDS011;66684;47.568;18.734;2023-03-24T15:42:25;5.20;;;2.17;;
51758;SDS011;66684;47.568;18.734;2023-03-24T15:44:51;7.85;;;2.00;;
51758;SDS011;66684;47.568;18.734;2023-03-24T15:47:22;4.82;;;1.80;;
51758;SDS011;66684;47.568;18.734;2023-03-24T15:55:00;6.62;;;1.67;;
51758;SDS011;66684;47.568;18.734;2023-03-24T15:57:46;7.53;;;2.00;;
51758;SDS011;66684;47.568;18.734;2023-03-24T16:00:13;4.25;;;1.92;;
51758;SDS011;66684;47.568;18.734;2023-03-24T16:02:52;3.62;;;2.20;;
51758;SDS011;66684;47.568;18.734;2023-03-24T16:05:21;4.55;;;1.98;;
51758;SDS011;66684;47.568;18.734;2023-03-24T16:10:27;5.12;;;2.80;;
51758;SDS011;66684;47.568;18.734;2023-03-24T16:13:14;5.10;;;2.85;;
51758;SDS011;66684;47.568;18.734;2023-03-24T16:18:21;6.53;;;2.00;;
51758;SDS011;66684;47.568;18.734;2023-03-24T16:20:57;4.70;;;1.70;;
51758;SDS011;66684;47.568;18.734;2023-03-24T16:23:24;7.10;;;1.98;;
51758;SDS011;66684;47.568;18.734;2023-03-24T16:25:50;4.00;;;2.03;;
51758;SDS011;66684;47.568;18.734;2023-03-24T16:28:17;6.78;;;2.30;;
51758;SDS011;66684;47.568;18.734;2023-03-24T16:30:48;6.40;;;2.10;;
51758;SDS011;66684;47.568;18.734;2023-03-24T16:33:17;10.93;;;3.97;;
51758;SDS011;66684;47.568;18.734;2023-03-24T16:35:46;11.65;;;4.12;;
51758;SDS011;66684;47.568;18.734;2023-03-24T16:38:12;9.57;;;4.43;;
51758;SDS011;66684;47.568;18.734;2023-03-24T16:40:39;9.73;;;3.70;;
51758;SDS011;66684;47.568;18.734;2023-03-24T16:43:09;6.93;;;3.30;;
51758;SDS011;66684;47.568;18.734;2023-03-24T16:45:35;9.93;;;2.92;;
51758;SDS011;66684;47.568;18.734;2023-03-24T16:48:01;9.23;;;2.37;;
51758;SDS011;66684;47.568;18.734;2023-03-24T16:50:29;8.90;;;2.20;;
51758;SDS011;66684;47.568;18.734;2023-03-24T16:52:58;6.35;;;2.37;;
51758;SDS011;66684;47.568;18.734;2023-03-24T16:55:25;7.32;;;2.15;;
51758;SDS011;66684;47.568;18.734;2023-03-24T16:57:51;8.93;;;1.87;;
51758;SDS011;66684;47.568;18.734;2023-03-24T17:00:17;8.18;;;2.00;;
51758;SDS011;66684;47.568;18.734;2023-03-24T17:02:43;7.25;;;1.70;;
51758;SDS011;66684;47.568;18.734;2023-03-24T17:05:21;7.62;;;2.25;;
51758;SDS011;66684;47.568;18.734;2023-03-24T17:07:49;7.37;;;2.05;;
51758;SDS011;66684;47.568;18.734;2023-03-24T17:10:16;7.50;;;2.60;;
51758;SDS011;66684;47.568;18.734;2023-03-24T17:12:42;9.15;;;2.58;;
51758;SDS011;66684;47.568;18.734;2023-03-24T17:15:30;10.52;;;2.60;;
51758;SDS011;66684;47.568;18.734;2023-03-24T17:17:55;5.37;;;2.12;;
51758;SDS011;66684;47.568;18.734;2023-03-24T17:20:22;4.80;;;2.50;;